sensor_id;sensor_type;location;lat;lon;timestamp;P1;durP1;ratioP1;P2;durP2;ratioP2
35679;SDS011;21803;53.586;10.040;2022-07-29T00:00:00;3.10;;;1.15;;
35679;SDS011;21803;53.586;10.040;2022-07-29T00:02:27;3.72;;;1.10;;
35679;SDS011;21803;53.586;10.040;2022-07-29T00:04:53;1.00;;;0.75;;
35679;SDS011;21803;53.586;10.040;2022-07-29T00:07:19;4.30;;;0.98;;
35679;SDS011;21803;53.586;10.040;2022-07-29T00:09:44;1.95;;;0.90;;
35679;SDS011;21803;53.586;10.040;2022-07-29T00:12:10;3.90;;;0.90;;
35679;SDS011;21803;53.586;10.040;2022-07-29T00:14:35;1.92;;;0.90;;
35679;SDS011;21803;53.586;10.040;2022-07-29T00:17:02;1.55;;;0.80;;
35679;SDS011;21803;53.586;10.040;2022-07-29T00:19:27;1.85;;;1.10;;
35679;SDS011;21803;53.586;10.040;2022-07-29T00:21:53;1.38;;;0.90;;
35679;SDS011;21803;53.586;10.040;2022-07-29T00:24:18;3.45;;;1.23;;
35679;SDS011;21803;53.586;10.040;2022-07-29T00:26:44;1.80;;;0.82;;
35679;SDS011;21803;53.586;10.040;2022-07-29T00:29:10;2.25;;;1.00;;
35679;SDS011;21803;53.586;10.040;2022-07-29T00:31:35;2.65;;;1.02;;
35679;SDS011;21803;53.586;10.040;2022-07-29T00:34:01;1.63;;;0.88;;
35679;SDS011;21803;53.586;10.040;2022-07-29T00:36:27;2.42;;;0.98;;
35679;SDS011;21803;53.586;10.040;2022-07-29T00:38:53;1.80;;;0.93;;
35679;SDS011;21803;53.586;10.040;2022-07-29T00:41:18;2.78;;;1.10;;
35679;SDS011;21803;53.586;10.040;2022-07-29T00:43:44;1.85;;;1.17;;
35679;SDS011;21803;53.586;10.040;2022-07-29T00:46:10;1.45;;;0.82;;
35679;SDS011;21803;53.586;10.040;2022-07-29T00:48:36;1.90;;;1.00;;
35679;SDS011;21803;53.586;10.040;2022-07-29T00:51:03;2.08;;;1.00;;
35679;SDS011;21803;53.586;10.040;2022-07-29T00:53:31;1.58;;;0.90;;
35679;SDS011;21803;53.586;10.040;2022-07-29T00:55:57;2.53;;;1.00;;
35679;SDS011;21803;53.586;10.040;2022-07-29T00:58:24;2.20;;;1.00;;
35679;SDS011;21803;53.586;10.040;2022-07-29T01:00:51;1.67;;;0.90;;
35679;SDS011;21803;53.586;10.040;2022-07-29T01:03:17;1.85;;;0.88;;
35679;SDS011;21803;53.586;10.040;2022-07-29T01:05:43;1.42;;;0.80;;
35679;SDS011;21803;53.586;10.040;2022-07-29T01:08:10;2.65;;;0.85;;
35679;SDS011;21803;53.586;10.040;2022-07-29T01:10:38;4.15;;;1.15;;
35679;SDS011;21803;53.586;10.040;2022-07-29T01:13:06;1.77;;;0.80;;
35679;SDS011;21803;53.586;10.040;2022-07-29T01:15:33;1.17;;;0.80;;
35679;SDS011;21803;53.586;10.040;2022-07-29T01:29:04;1.42;;;0.98;;
35679;SDS011;21803;53.586;10.040;2022-07-29T01:34:21;1.00;;;0.90;;
35679;SDS011;21803;53.586;10.040;2022-07-29T01:36:55;4.15;;;1.02;;
35679;SDS011;21803;53.586;10.040;2022-07-29T01:39:46;3.53;;;1.17;;
35679;SDS011;21803;53.586;10.040;2022-07-29T01:47:48;3.15;;;1.02;;
35679;SDS011;21803;53.586;10.040;2022-07-29T01:50:22;3.08;;;0.90;;
35679;SDS011;21803;53.586;10.040;2022-07-29T01:53:02;3.42;;;1.08;;
35679;SDS011;21803;53.586;10.040;2022-07-29T01:55:32;3.33;;;1.00;;
35679;SDS011;21803;53.586;10.040;2022-07-29T01:58:02;2.65;;;1.00;;
35679;SDS011;21803;53.586;10.040;2022-07-29T02:00:29;3.47;;;0.95;;
35679;SDS011;21803;53.586;10.040;2022-07-29T02:02:56;2.40;;;0.90;;
35679;SDS011;21803;53.586;10.040;2022-07-29T02:05:25;1.88;;;0.93;;
35679;SDS011;21803;53.586;10.040;2022-07-29T02:07:53;3.47;;;1.45;;
35679;SDS011;21803;53.586;10.040;2022-07-29T02:10:22;1.75;;;0.90;;
35679;SDS011;21803;53.586;10.040;2022-07-29T02:12:51;4.38;;;1.02;;
35679;SDS011;21803;53.586;10.040;2022-07-29T02:15:19;2.53;;;1.02;;
35679;SDS011;21803;53.586;10.040;2022-07-29T02:17:49;2.40;;;1.10;;
35679;SDS011;21803;53.586;10.040;2022-07-29T02:20:19;1.27;;;0.90;;
35679;SDS011;21803;53.586;10.040;2022-07-29T02:22:47;1.92;;;1.13;;
35679;SDS011;21803;53.586;10.040;2022-07-29T02:25:14;2.78;;;1.10;;
35679;SDS011;21803;53.586;10.040;2022-07-29T02:27:41;4.65;;;1.13;;
35679;SDS011;21803;53.586;10.040;2022-07-29T02:30:08;3.88;;;1.00;;
35679;SDS011;21803;53.586;10.040;2022-07-29T02:32:35;1.27;;;0.90;;
35679;SDS011;21803;53.586;10.040;2022-07-29T02:35:02;2.25;;;1.05;;
35679;SDS011;21803;53.586;10.040;2022-07-29T02:37:28;4.40;;;1.00;;
35679;SDS011;21803;53.586;10.040;2022-07-29T02:39:55;3.38;;;1.00;;
35679;SDS011;21803;53.586;10.040;2022-07-29T02:42:23;2.15;;;1.08;;
35679;SDS011;21803;53.586;10.040;2022-07-29T02:44:51;2.38;;;1.00;;
35679;SDS011;21803;53.586;10.040;2022-07-29T02:47:24;3.00;;;1.10;;
35679;SDS011;21803;53.586;10.040;2022-07-29T02:50:06;1.77;;;0.93;;
35679;SDS011;21803;53.586;10.040;2022-07-29T02:53:05;3.00;;;0.85;;
35679;SDS011;21803;53.586;10.040;2022-07-29T02:55:40;3.55;;;0.98;;
35679;SDS011;21803;53.586;10.040;2022-07-29T03:00:45;4.20;;;1.13;;
35679;SDS011;21803;53.586;10.040;2022-07-29T03:03:13;3.70;;;1.10;;
35679;SDS011;21803;53.586;10.040;2022-07-29T03:05:41;3.58;;;1.05;;
35679;SDS011;21803;53.586;10.040;2022-07-29T03:08:08;3.92;;;1.25;;
35679;SDS011;21803;53.586;10.040;2022-07-29T03:10:35;6.72;;;1.08;;
35679;SDS011;21803;53.586;10.040;2022-07-29T03:13:03;2.38;;;0.93;;
35679;SDS011;21803;53.586;10.040;2022-07-29T03:15:30;3.35;;;1.10;;
35679;SDS011;21803;53.586;10.040;2022-07-29T03:17:56;3.53;;;1.08;;
35679;SDS011;21803;53.586;10.040;2022-07-29T03:20:26;2.13;;;0.93;;
35679;SDS011;21803;53.586;10.040;2022-07-29T03:22:52;3.17;;;0.90;;
35679;SDS011;21803;53.586;10.040;2022-07-29T03:25:18;2.45;;;0.98;;
35679;SDS011;21803;53.586;10.040;2022-07-29T03:27:44;5.53;;;1.40;;
35679;SDS011;21803;53.586;10.040;2022-07-29T03:30:11;3.65;;;0.98;;
35679;SDS011;21803;53.586;10.040;2022-07-29T03:32:39;2.88;;;0.98;;
35679;SDS011;21803;53.586;10.040;2022-07-29T03:35:05;5.72;;;1.10;;
35679;SDS011;21803;53.586;10.040;2022-07-29T03:37:32;2.67;;;1.00;;
35679;SDS011;21803;53.586;10.040;2022-07-29T03:39:58;2.50;;;1.10;;
35679;SDS011;21803;53.586;10.040;2022-07-29T03:42:26;2.65;;;1.00;;
35679;SDS011;21803;53.586;10.040;2022-07-29T03:44:55;2.65;;;1.05;;
35679;SDS011;21803;53.586;10.040;2022-07-29T03:47:24;2.58;;;1.10;;
35679;SDS011;21803;53.586;10.040;2022-07-29T03:49:52;6.88;;;1.20;;
35679;SDS011;21803;53.586;10.040;2022-07-29T03:52:23;4.28;;;1.00;;
35679;SDS011;21803;53.586;10.040;2022-07-29T03:54:48;1.80;;;0.98;;
35679;SDS011;21803;53.586;10.040;2022-07-29T03:57:14;4.72;;;1.23;;
35679;SDS011;21803;53.586;10.040;2022-07-29T03:59:42;3.95;;;1.38;;
35679;SDS011;21803;53.586;10.040;2022-07-29T04:02:09;2.40;;;0.90;;
35679;SDS011;21803;53.586;10.040;2022-07-29T04:04:36;3.70;;;1.20;;
35679;SDS011;21803;53.586;10.040;2022-07-29T04:07:02;2.42;;;1.00;;
35679;SDS011;21803;53.586;10.040;2022-07-29T04:09:28;4.35;;;1.27;;
35679;SDS011;21803;53.586;10.040;2022-07-29T04:11:54;4.25;;;1.00;;
35679;SDS011;21803;53.586;10.040;2022-07-29T04:14:20;2.15;;;1.20;;
35679;SDS011;21803;53.586;10.040;2022-07-29T04:16:45;4.80;;;1.20;;
35679;SDS011;21803;53.586;10.040;2022-07-29T04:19:11;4.97;;;1.10;;
35679;SDS011;21803;53.586;10.040;2022-07-29T04:21:40;3.75;;;1.42;;
35679;SDS011;21803;53.586;10.040;2022-07-29T04:24:07;3.33;;;1.10;;
35679;SDS011;21803;53.586;10.040;2022-07-29T04:26:33;3.95;;;1.13;;
35679;SDS011;21803;53.586;10.040;2022-07-29T04:28:59;1.90;;;0.95;;
35679;SDS011;21803;53.586;10.040;2022-07-29T04:31:25;1.83;;;1.10;;
35679;SDS011;21803;53.586;10.040;2022-07-29T04:33:51;2.95;;;1.00;;
35679;SDS011;21803;53.586;10.040;2022-07-29T04:36:17;3.85;;;1.30;;
35679;SDS011;21803;53.586;10.040;2022-07-29T04:38:42;3.55;;;1.00;;
35679;SDS011;21803;53.586;10.040;2022-07-29T04:41:08;2.97;;;0.82;;
35679;SDS011;21803;53.586;10.040;2022-07-29T04:43:37;2.10;;;1.10;;
35679;SDS011;21803;53.586;10.040;2022-07-29T04:46:03;1.98;;;1.00;;
35679;SDS011;21803;53.586;10.040;2022-07-29T04:48:31;2.58;;;1.00;;
35679;SDS011;21803;53.586;10.040;2022-07-29T04:50:56;3.55;;;0.90;;
35679;SDS011;21803;53.586;10.040;2022-07-29T04:53:22;2.10;;;1.20;;
35679;SDS011;21803;53.586;10.040;2022-07-29T04:55:47;2.80;;;1.13;;
35679;SDS011;21803;53.586;10.040;2022-07-29T04:58:13;3.33;;;1.10;;
35679;SDS011;21803;53.586;10.040;2022-07-29T05:00:39;4.85;;;1.60;;
35679;SDS011;21803;53.586;10.040;2022-07-29T05:03:04;3.50;;;1.20;;
35679;SDS011;21803;53.586;10.040;2022-07-29T05:05:30;3.03;;;1.30;;
35679;SDS011;21803;53.586;10.040;2022-07-29T05:07:56;4.57;;;1.30;;
35679;SDS011;21803;53.586;10.040;2022-07-29T05:10:21;2.90;;;1.33;;
35679;SDS011;21803;53.586;10.040;2022-07-29T05:12:47;3.60;;;1.17;;
35679;SDS011;21803;53.586;10.040;2022-07-29T05:15:13;5.07;;;1.30;;
35679;SDS011;21803;53.586;10.040;2022-07-29T05:17:39;3.53;;;0.93;;
35679;SDS011;21803;53.586;10.040;2022-07-29T05:20:05;6.00;;;1.45;;
35679;SDS011;21803;53.586;10.040;2022-07-29T05:22:31;2.15;;;1.10;;
35679;SDS011;21803;53.586;10.040;2022-07-29T05:24:56;5.45;;;1.27;;
35679;SDS011;21803;53.586;10.040;2022-07-29T05:27:22;3.17;;;1.25;;
35679;SDS011;21803;53.586;10.040;2022-07-29T05:29:47;3.58;;;1.50;;
35679;SDS011;21803;53.586;10.040;2022-07-29T05:32:13;3.95;;;1.30;;
35679;SDS011;21803;53.586;10.040;2022-07-29T05:34:39;4.32;;;1.20;;
35679;SDS011;21803;53.586;10.040;2022-07-29T05:37:05;4.05;;;1.17;;
35679;SDS011;21803;53.586;10.040;2022-07-29T05:39:30;2.72;;;1.23;;
35679;SDS011;21803;53.586;10.040;2022-07-29T05:41:56;3.53;;;1.23;;
35679;SDS011;21803;53.586;10.040;2022-07-29T05:44:21;3.20;;;1.00;;
35679;SDS011;21803;53.586;10.040;2022-07-29T05:46:47;3.63;;;1.10;;
35679;SDS011;21803;53.586;10.040;2022-07-29T05:49:12;3.17;;;1.00;;
35679;SDS011;21803;53.586;10.040;2022-07-29T05:51:38;3.85;;;1.20;;
35679;SDS011;21803;53.586;10.040;2022-07-29T05:54:04;4.30;;;1.23;;
35679;SDS011;21803;53.586;10.040;2022-07-29T05:56:29;2.58;;;0.82;;
35679;SDS011;21803;53.586;10.040;2022-07-29T05:58:55;3.15;;;1.00;;
35679;SDS011;21803;53.586;10.040;2022-07-29T06:01:20;2.63;;;0.90;;
35679;SDS011;21803;53.586;10.040;2022-07-29T06:03:46;3.28;;;0.93;;
35679;SDS011;21803;53.586;10.040;2022-07-29T06:06:12;2.40;;;0.95;;
35679;SDS011;21803;53.586;10.040;2022-07-29T06:08:37;2.33;;;1.10;;
35679;SDS011;21803;53.586;10.040;2022-07-29T06:11:03;3.58;;;0.93;;
35679;SDS011;21803;53.586;10.040;2022-07-29T06:13:29;3.67;;;1.20;;
35679;SDS011;21803;53.586;10.040;2022-07-29T06:15:55;2.22;;;1.00;;
35679;SDS011;21803;53.586;10.040;2022-07-29T06:18:21;3.35;;;1.27;;
35679;SDS011;21803;53.586;10.040;2022-07-29T06:20:49;3.50;;;1.25;;
35679;SDS011;21803;53.586;10.040;2022-07-29T06:23:15;1.83;;;1.10;;
35679;SDS011;21803;53.586;10.040;2022-07-29T06:25:41;3.85;;;1.13;;
35679;SDS011;21803;53.586;10.040;2022-07-29T06:28:07;3.10;;;1.25;;
35679;SDS011;21803;53.586;10.040;2022-07-29T06:30:33;4.30;;;1.17;;
35679;SDS011;21803;53.586;10.040;2022-07-29T06:32:58;5.30;;;1.00;;
35679;SDS011;21803;53.586;10.040;2022-07-29T06:35:25;4.80;;;1.58;;
35679;SDS011;21803;53.586;10.040;2022-07-29T06:37:50;3.28;;;1.05;;
35679;SDS011;21803;53.586;10.040;2022-07-29T06:40:16;3.72;;;1.15;;
35679;SDS011;21803;53.586;10.040;2022-07-29T06:43:01;4.30;;;1.30;;
35679;SDS011;21803;53.586;10.040;2022-07-29T06:45:26;2.70;;;1.05;;
35679;SDS011;21803;53.586;10.040;2022-07-29T06:47:52;2.00;;;1.20;;
35679;SDS011;21803;53.586;10.040;2022-07-29T06:50:18;2.80;;;1.10;;
35679;SDS011;21803;53.586;10.040;2022-07-29T06:52:43;4.93;;;1.27;;
35679;SDS011;21803;53.586;10.040;2022-07-29T06:55:09;2.72;;;1.13;;
35679;SDS011;21803;53.586;10.040;2022-07-29T06:57:34;2.70;;;1.15;;
35679;SDS011;21803;53.586;10.040;2022-07-29T07:00:00;2.63;;;0.93;;
35679;SDS011;21803;53.586;10.040;2022-07-29T07:02:26;4.00;;;1.67;;
35679;SDS011;21803;53.586;10.040;2022-07-29T07:04:51;5.10;;;1.20;;
35679;SDS011;21803;53.586;10.040;2022-07-29T07:07:17;3.03;;;1.20;;
35679;SDS011;21803;53.586;10.040;2022-07-29T07:09:42;4.43;;;1.40;;
35679;SDS011;21803;53.586;10.040;2022-07-29T07:12:08;2.90;;;1.10;;
35679;SDS011;21803;53.586;10.040;2022-07-29T07:14:34;5.32;;;1.38;;
35679;SDS011;21803;53.586;10.040;2022-07-29T07:16:59;5.63;;;1.17;;
35679;SDS011;21803;53.586;10.040;2022-07-29T07:19:25;3.92;;;1.30;;
35679;SDS011;21803;53.586;10.040;2022-07-29T07:21:54;5.25;;;1.30;;
35679;SDS011;21803;53.586;10.040;2022-07-29T07:24:20;5.72;;;1.55;;
35679;SDS011;21803;53.586;10.040;2022-07-29T07:26:46;7.00;;;1.60;;
35679;SDS011;21803;53.586;10.040;2022-07-29T07:29:11;5.55;;;1.38;;
35679;SDS011;21803;53.586;10.040;2022-07-29T07:31:37;4.95;;;2.08;;
35679;SDS011;21803;53.586;10.040;2022-07-29T07:34:03;6.22;;;1.40;;
35679;SDS011;21803;53.586;10.040;2022-07-29T07:36:29;5.80;;;1.77;;
35679;SDS011;21803;53.586;10.040;2022-07-29T07:38:54;6.47;;;1.52;;
35679;SDS011;21803;53.586;10.040;2022-07-29T07:41:20;7.38;;;1.55;;
35679;SDS011;21803;53.586;10.040;2022-07-29T07:43:47;7.20;;;1.50;;
35679;SDS011;21803;53.586;10.040;2022-07-29T07:46:13;7.05;;;1.55;;
35679;SDS011;21803;53.586;10.040;2022-07-29T07:48:38;8.15;;;1.88;;
35679;SDS011;21803;53.586;10.040;2022-07-29T07:51:04;8.98;;;1.90;;
35679;SDS011;21803;53.586;10.040;2022-07-29T07:53:29;7.75;;;1.55;;
35679;SDS011;21803;53.586;10.040;2022-07-29T07:55:55;7.15;;;1.55;;
35679;SDS011;21803;53.586;10.040;2022-07-29T07:58:21;8.50;;;2.15;;
35679;SDS011;21803;53.586;10.040;2022-07-29T08:00:46;7.32;;;1.73;;
35679;SDS011;21803;53.586;10.040;2022-07-29T08:03:12;10.15;;;2.00;;
35679;SDS011;21803;53.586;10.040;2022-07-29T08:05:38;9.75;;;1.70;;
35679;SDS011;21803;53.586;10.040;2022-07-29T08:08:04;10.50;;;1.85;;
35679;SDS011;21803;53.586;10.040;2022-07-29T08:10:30;7.70;;;2.03;;
35679;SDS011;21803;53.586;10.040;2022-07-29T08:13:14;4.47;;;1.85;;
35679;SDS011;21803;53.586;10.040;2022-07-29T08:15:40;5.05;;;1.55;;
35679;SDS011;21803;53.586;10.040;2022-07-29T08:18:07;5.20;;;1.70;;
35679;SDS011;21803;53.586;10.040;2022-07-29T08:20:33;6.68;;;1.58;;
35679;SDS011;21803;53.586;10.040;2022-07-29T08:23:00;8.02;;;1.70;;
35679;SDS011;21803;53.586;10.040;2022-07-29T08:25:26;4.90;;;1.65;;
35679;SDS011;21803;53.586;10.040;2022-07-29T08:27:51;3.20;;;1.23;;
35679;SDS011;21803;53.586;10.040;2022-07-29T08:30:17;3.13;;;1.50;;
35679;SDS011;21803;53.586;10.040;2022-07-29T08:32:43;5.55;;;1.80;;
35679;SDS011;21803;53.586;10.040;2022-07-29T08:35:08;4.75;;;2.05;;
35679;SDS011;21803;53.586;10.040;2022-07-29T08:37:34;5.30;;;1.40;;
35679;SDS011;21803;53.586;10.040;2022-07-29T08:40:00;4.35;;;1.60;;
35679;SDS011;21803;53.586;10.040;2022-07-29T08:42:25;2.90;;;1.40;;
35679;SDS011;21803;53.586;10.040;2022-07-29T08:44:51;5.50;;;1.55;;
35679;SDS011;21803;53.586;10.040;2022-07-29T08:47:18;3.03;;;1.83;;
35679;SDS011;21803;53.586;10.040;2022-07-29T08:49:44;3.92;;;1.85;;
35679;SDS011;21803;53.586;10.040;2022-07-29T08:52:12;4.25;;;1.52;;
35679;SDS011;21803;53.586;10.040;2022-07-29T08:54:39;5.22;;;1.73;;
35679;SDS011;21803;53.586;10.040;2022-07-29T08:57:08;5.18;;;1.40;;
35679;SDS011;21803;53.586;10.040;2022-07-29T08:59:37;4.32;;;1.35;;
35679;SDS011;21803;53.586;10.040;2022-07-29T09:02:08;4.00;;;1.33;;
35679;SDS011;21803;53.586;10.040;2022-07-29T09:04:44;3.00;;;1.40;;
35679;SDS011;21803;53.586;10.040;2022-07-29T09:07:10;3.47;;;1.60;;
35679;SDS011;21803;53.586;10.040;2022-07-29T09:09:40;7.85;;;2.22;;
35679;SDS011;21803;53.586;10.040;2022-07-29T09:12:06;4.57;;;1.63;;
35679;SDS011;21803;53.586;10.040;2022-07-29T09:14:33;5.47;;;1.83;;
35679;SDS011;21803;53.586;10.040;2022-07-29T09:16:59;6.30;;;1.73;;
35679;SDS011;21803;53.586;10.040;2022-07-29T09:21:53;5.65;;;1.45;;
35679;SDS011;21803;53.586;10.040;2022-07-29T09:24:41;5.90;;;2.03;;
35679;SDS011;21803;53.586;10.040;2022-07-29T09:29:49;8.43;;;2.00;;
35679;SDS011;21803;53.586;10.040;2022-07-29T09:32:24;6.75;;;1.83;;
35679;SDS011;21803;53.586;10.040;2022-07-29T09:34:51;6.32;;;1.38;;
35679;SDS011;21803;53.586;10.040;2022-07-29T09:37:36;8.30;;;1.60;;
35679;SDS011;21803;53.586;10.040;2022-07-29T09:40:10;7.47;;;1.75;;
35679;SDS011;21803;53.586;10.040;2022-07-29T09:42:37;8.20;;;1.58;;
35679;SDS011;21803;53.586;10.040;2022-07-29T09:45:02;5.72;;;1.98;;
35679;SDS011;21803;53.586;10.040;2022-07-29T09:47:45;6.47;;;1.73;;
35679;SDS011;21803;53.586;10.040;2022-07-29T09:50:13;7.43;;;1.58;;
35679;SDS011;21803;53.586;10.040;2022-07-29T09:52:49;6.60;;;1.60;;
35679;SDS011;21803;53.586;10.040;2022-07-29T09:55:16;5.15;;;1.45;;
35679;SDS011;21803;53.586;10.040;2022-07-29T09:57:42;8.13;;;1.98;;
35679;SDS011;21803;53.586;10.040;2022-07-29T10:00:10;4.82;;;1.67;;
35679;SDS011;21803;53.586;10.040;2022-07-29T10:02:38;4.72;;;1.35;;
35679;SDS011;21803;53.586;10.040;2022-07-29T10:05:05;7.30;;;1.73;;
35679;SDS011;21803;53.586;10.040;2022-07-29T10:07:44;4.82;;;1.95;;
35679;SDS011;21803;53.586;10.040;2022-07-29T10:10:10;3.47;;;1.63;;
35679;SDS011;21803;53.586;10.040;2022-07-29T10:12:51;5.10;;;1.10;;
35679;SDS011;21803;53.586;10.040;2022-07-29T10:15:22;5.68;;;1.33;;
35679;SDS011;21803;53.586;10.040;2022-07-29T10:17:49;3.03;;;1.33;;
35679;SDS011;21803;53.586;10.040;2022-07-29T10:20:15;4.40;;;1.40;;
35679;SDS011;21803;53.586;10.040;2022-07-29T10:22:41;3.65;;;1.02;;
35679;SDS011;21803;53.586;10.040;2022-07-29T10:25:09;3.28;;;1.20;;
35679;SDS011;21803;53.586;10.040;2022-07-29T10:27:35;5.00;;;1.33;;
35679;SDS011;21803;53.586;10.040;2022-07-29T10:30:03;2.65;;;1.20;;
35679;SDS011;21803;53.586;10.040;2022-07-29T10:32:39;6.50;;;1.55;;
35679;SDS011;21803;53.586;10.040;2022-07-29T10:35:09;3.22;;;1.30;;
35679;SDS011;21803;53.586;10.040;2022-07-29T10:37:57;3.05;;;1.25;;
35679;SDS011;21803;53.586;10.040;2022-07-29T10:40:46;5.05;;;1.30;;
35679;SDS011;21803;53.586;10.040;2022-07-29T10:43:41;3.15;;;1.23;;
35679;SDS011;21803;53.586;10.040;2022-07-29T10:46:09;6.13;;;1.30;;
35679;SDS011;21803;53.586;10.040;2022-07-29T10:48:54;4.90;;;1.30;;
35679;SDS011;21803;53.586;10.040;2022-07-29T10:59:46;2.72;;;1.25;;
35679;SDS011;21803;53.586;10.040;2022-07-29T11:05:16;4.20;;;1.10;;
35679;SDS011;21803;53.586;10.040;2022-07-29T11:10:39;2.60;;;1.10;;
35679;SDS011;21803;53.586;10.040;2022-07-29T11:13:05;2.80;;;1.20;;
35679;SDS011;21803;53.586;10.040;2022-07-29T11:15:51;2.35;;;1.10;;
35679;SDS011;21803;53.586;10.040;2022-07-29T11:18:17;4.53;;;1.20;;
35679;SDS011;21803;53.586;10.040;2022-07-29T11:20:44;2.17;;;1.15;;
35679;SDS011;21803;53.586;10.040;2022-07-29T11:23:18;1.70;;;1.10;;
35679;SDS011;21803;53.586;10.040;2022-07-29T11:25:44;2.10;;;1.00;;
35679;SDS011;21803;53.586;10.040;2022-07-29T11:28:13;2.20;;;1.23;;
35679;SDS011;21803;53.586;10.040;2022-07-29T11:30:50;1.70;;;0.95;;
35679;SDS011;21803;53.586;10.040;2022-07-29T11:33:30;4.22;;;1.25;;
35679;SDS011;21803;53.586;10.040;2022-07-29T11:36:15;3.70;;;1.20;;
35679;SDS011;21803;53.586;10.040;2022-07-29T11:38:41;3.95;;;1.27;;
35679;SDS011;21803;53.586;10.040;2022-07-29T11:43:48;3.33;;;1.20;;
35679;SDS011;21803;53.586;10.040;2022-07-29T11:49:19;2.03;;;0.80;;
35679;SDS011;21803;53.586;10.040;2022-07-29T11:51:53;2.85;;;1.15;;
35679;SDS011;21803;53.586;10.040;2022-07-29T11:54:30;1.95;;;1.00;;
35679;SDS011;21803;53.586;10.040;2022-07-29T11:56:57;1.98;;;0.90;;
35679;SDS011;21803;53.586;10.040;2022-07-29T11:59:24;3.58;;;1.15;;
35679;SDS011;21803;53.586;10.040;2022-07-29T12:01:53;2.45;;;1.17;;
35679;SDS011;21803;53.586;10.040;2022-07-29T12:04:23;2.30;;;0.90;;
35679;SDS011;21803;53.586;10.040;2022-07-29T12:06:52;1.10;;;0.98;;
35679;SDS011;21803;53.586;10.040;2022-07-29T12:09:19;2.10;;;0.90;;
35679;SDS011;21803;53.586;10.040;2022-07-29T12:11:45;1.63;;;1.20;;
35679;SDS011;21803;53.586;10.040;2022-07-29T12:14:28;1.70;;;0.90;;
35679;SDS011;21803;53.586;10.040;2022-07-29T12:16:54;1.58;;;0.90;;
35679;SDS011;21803;53.586;10.040;2022-07-29T12:19:21;2.80;;;1.00;;
35679;SDS011;21803;53.586;10.040;2022-07-29T12:21:47;3.10;;;0.95;;
35679;SDS011;21803;53.586;10.040;2022-07-29T12:24:14;2.58;;;1.17;;
35679;SDS011;21803;53.586;10.040;2022-07-29T12:26:50;2.65;;;1.10;;
35679;SDS011;21803;53.586;10.040;2022-07-29T12:29:17;2.10;;;0.98;;
35679;SDS011;21803;53.586;10.040;2022-07-29T12:31:44;1.58;;;0.90;;
35679;SDS011;21803;53.586;10.040;2022-07-29T12:34:13;3.13;;;0.90;;
35679;SDS011;21803;53.586;10.040;2022-07-29T12:36:41;2.97;;;0.90;;
35679;SDS011;21803;53.586;10.040;2022-07-29T12:39:07;2.35;;;0.90;;
35679;SDS011;21803;53.586;10.040;2022-07-29T12:41:34;0.98;;;0.85;;
35679;SDS011;21803;53.586;10.040;2022-07-29T12:44:00;1.40;;;0.65;;
35679;SDS011;21803;53.586;10.040;2022-07-29T12:46:26;2.22;;;1.13;;
35679;SDS011;21803;53.586;10.040;2022-07-29T12:48:52;1.95;;;0.65;;
35679;SDS011;21803;53.586;10.040;2022-07-29T12:51:36;1.73;;;0.90;;
35679;SDS011;21803;53.586;10.040;2022-07-29T12:54:05;1.77;;;1.17;;
35679;SDS011;21803;53.586;10.040;2022-07-29T12:56:38;1.88;;;0.90;;
35679;SDS011;21803;53.586;10.040;2022-07-29T12:59:17;1.45;;;0.80;;
35679;SDS011;21803;53.586;10.040;2022-07-29T13:01:46;1.27;;;0.88;;
35679;SDS011;21803;53.586;10.040;2022-07-29T13:04:26;1.98;;;1.00;;
35679;SDS011;21803;53.586;10.040;2022-07-29T13:07:00;1.05;;;0.80;;
35679;SDS011;21803;53.586;10.040;2022-07-29T13:09:40;2.25;;;1.05;;
35679;SDS011;21803;53.586;10.040;2022-07-29T13:12:10;2.42;;;1.00;;
35679;SDS011;21803;53.586;10.040;2022-07-29T13:14:39;2.28;;;1.15;;
35679;SDS011;21803;53.586;10.040;2022-07-29T13:17:10;1.90;;;0.90;;
35679;SDS011;21803;53.586;10.040;2022-07-29T13:22:13;2.25;;;0.82;;
35679;SDS011;21803;53.586;10.040;2022-07-29T13:27:19;2.05;;;0.80;;
35679;SDS011;21803;53.586;10.040;2022-07-29T13:29:46;1.10;;;0.93;;
35679;SDS011;21803;53.586;10.040;2022-07-29T13:32:12;1.92;;;1.02;;
35679;SDS011;21803;53.586;10.040;2022-07-29T13:34:38;1.17;;;0.70;;
35679;SDS011;21803;53.586;10.040;2022-07-29T13:37:04;1.58;;;0.73;;
35679;SDS011;21803;53.586;10.040;2022-07-29T13:39:30;0.85;;;0.70;;
35679;SDS011;21803;53.586;10.040;2022-07-29T13:41:55;2.00;;;0.90;;
35679;SDS011;21803;53.586;10.040;2022-07-29T13:44:21;1.02;;;0.80;;
35679;SDS011;21803;53.586;10.040;2022-07-29T13:46:46;1.05;;;0.80;;
35679;SDS011;21803;53.586;10.040;2022-07-29T13:49:12;1.25;;;0.88;;
35679;SDS011;21803;53.586;10.040;2022-07-29T13:51:38;1.38;;;0.82;;
35679;SDS011;21803;53.586;10.040;2022-07-29T13:54:04;1.40;;;0.70;;
35679;SDS011;21803;53.586;10.040;2022-07-29T13:56:29;1.10;;;0.93;;
35679;SDS011;21803;53.586;10.040;2022-07-29T13:58:55;0.77;;;0.75;;
35679;SDS011;21803;53.586;10.040;2022-07-29T14:01:20;1.15;;;0.80;;
35679;SDS011;21803;53.586;10.040;2022-07-29T14:03:46;1.30;;;0.80;;
35679;SDS011;21803;53.586;10.040;2022-07-29T14:06:11;1.65;;;0.63;;
35679;SDS011;21803;53.586;10.040;2022-07-29T14:08:38;1.92;;;0.82;;
35679;SDS011;21803;53.586;10.040;2022-07-29T14:11:03;0.88;;;0.70;;
35679;SDS011;21803;53.586;10.040;2022-07-29T14:13:29;0.90;;;0.77;;
35679;SDS011;21803;53.586;10.040;2022-07-29T14:15:55;1.20;;;0.90;;
35679;SDS011;21803;53.586;10.040;2022-07-29T14:18:20;1.90;;;0.80;;
35679;SDS011;21803;53.586;10.040;2022-07-29T14:20:46;1.67;;;0.95;;
35679;SDS011;21803;53.586;10.040;2022-07-29T14:23:11;1.70;;;0.80;;
35679;SDS011;21803;53.586;10.040;2022-07-29T14:25:37;1.08;;;0.90;;
35679;SDS011;21803;53.586;10.040;2022-07-29T14:28:02;1.42;;;0.85;;
35679;SDS011;21803;53.586;10.040;2022-07-29T14:30:28;1.00;;;0.80;;
35679;SDS011;21803;53.586;10.040;2022-07-29T14:32:54;1.10;;;1.00;;
35679;SDS011;21803;53.586;10.040;2022-07-29T14:35:19;1.27;;;0.85;;
35679;SDS011;21803;53.586;10.040;2022-07-29T14:37:45;1.15;;;0.70;;
35679;SDS011;21803;53.586;10.040;2022-07-29T14:40:10;1.00;;;0.90;;
35679;SDS011;21803;53.586;10.040;2022-07-29T14:42:36;1.42;;;1.00;;
35679;SDS011;21803;53.586;10.040;2022-07-29T14:45:03;0.80;;;0.60;;
35679;SDS011;21803;53.586;10.040;2022-07-29T14:47:30;1.05;;;0.77;;
35679;SDS011;21803;53.586;10.040;2022-07-29T14:49:55;1.10;;;0.75;;
35679;SDS011;21803;53.586;10.040;2022-07-29T14:52:21;2.40;;;0.80;;
35679;SDS011;21803;53.586;10.040;2022-07-29T14:54:47;0.80;;;0.73;;
35679;SDS011;21803;53.586;10.040;2022-07-29T14:57:12;1.70;;;0.93;;
35679;SDS011;21803;53.586;10.040;2022-07-29T14:59:38;1.25;;;0.82;;
35679;SDS011;21803;53.586;10.040;2022-07-29T15:02:03;1.73;;;0.88;;
35679;SDS011;21803;53.586;10.040;2022-07-29T15:04:29;1.42;;;0.70;;
35679;SDS011;21803;53.586;10.040;2022-07-29T15:06:55;1.00;;;0.90;;
35679;SDS011;21803;53.586;10.040;2022-07-29T15:09:20;2.25;;;0.90;;
35679;SDS011;21803;53.586;10.040;2022-07-29T15:11:46;1.23;;;0.85;;
35679;SDS011;21803;53.586;10.040;2022-07-29T15:14:11;1.33;;;0.73;;
35679;SDS011;21803;53.586;10.040;2022-07-29T15:16:37;0.70;;;0.70;;
35679;SDS011;21803;53.586;10.040;2022-07-29T15:19:04;1.63;;;0.85;;
35679;SDS011;21803;53.586;10.040;2022-07-29T15:21:30;1.63;;;0.80;;
35679;SDS011;21803;53.586;10.040;2022-07-29T15:23:56;1.35;;;1.08;;
35679;SDS011;21803;53.586;10.040;2022-07-29T15:26:22;1.08;;;0.90;;
35679;SDS011;21803;53.586;10.040;2022-07-29T15:28:47;1.42;;;0.90;;